Weather at Halifax / Stanfield International Airport

Public forecast

Using degrees Celsius for public forecast. Weather courtesy of forecast.io.

Current aviation weather report (METAR) for Halifax / Stanfield International Airport

Retrieved 2020/12/06 01:14 UTC (0 seconds ago):

CYHZ 060114Z 13018G25KT 3SM -RA BR SCT007 OVC025 12/12 A2951 RMK SF4SC4 PRESFR SLP996 DENSITY ALT 700FT

Aviation forecast (TAF) for Halifax / Stanfield International Airport

Retrieved 2020-12-06 00:57 UTC (5 minutes ago):

TAF CYHZ 052354Z 0600/0624 13012G22KT 6SM -SHRA BR SCT004 OVC040 TEMPO 0600/0601 2SM -RA BR VV002 FM060100 14015G25KT 3SM RA BR OVC003 TEMPO 0601/0605 6SM -RA BR OVC006 FM060500 18020G35KT 6SM -DZ BR OVC012 TEMPO 0605/0608 4SM -DZ BR OVC006 FM062000 22018G30KT 6SM -DZ BR OVC012 RMK NXT FCST BY 060300Z